Manigotagan, Canada
Current Conditions -  °F | °C
As of 10:00 PM on Sunday 25 Jan 2015 (Local Time) from CYWG Reporting Station
Overcast Overcast  
Wind Chill:   Ceiling: 1200
Heat Index: 23°   Visibility: 15mi
Dew Point: 19°   Wind: 21mph
Humidity: 86%   Direction: 190°S
Pressure: 29.63"   Gusts: 26mph
Location:  51.1°N, 96.3°W
Report Text: CYWG 260400Z 19018G23KT 15SM OVC012 M05/M07 A2963 RMK ST8 SLP050
Loading
Personal Weather Stations






























Interactive Weather Map New forecast layout! Learn more

10-Day Weather Forecast

Advertisements
Track Severe Weather on mobile